Time;durP1;ratioP1;P1;durP2;ratioP2;P2;SDS_P1;SDS_P2;PMS_P1;PMS_P2;Temp;Humidity;BMP_temperature;BMP_pressure;BME280_temperature;BME280_humidity;BME280_pressure;Samples;Min_cycle;Max_cycle;Signal;HPM_P1;HPM_P2
2022/12/01 00:01:01;;;;;;;87.57;39.03;;;1.80;1.00;;;;;;6232352;28;20245;-54
2022/12/01 00:04:04;;;;;;;84.47;38.43;;;1.80;1.00;;;;;;6224439;28;20231;-55
2022/12/01 00:07:07;;;;;;;87.70;39.57;;;2.10;1.00;;;;;;6228051;28;20231;-54
2022/12/01 00:10:27;;;;;;;81.33;38.13;;;2.10;1.00;;;;;;6211433;28;20234;-54
2022/12/01 00:13:32;;;;;;;75.97;36.20;;;2.10;1.00;;;;;;6220486;28;20622;-54
2022/12/01 00:16:35;;;;;;;76.80;37.00;;;1.90;1.00;;;;;;6241713;28;20239;-54
2022/12/01 00:19:38;;;;;;;79.57;35.57;;;2.10;1.00;;;;;;6251548;28;20479;-55
2022/12/01 00:22:43;;;;;;;78.80;35.47;;;1.80;1.00;;;;;;6237284;28;20234;-54
2022/12/01 00:25:46;;;;;;;69.47;34.87;;;1.90;1.00;;;;;;6236045;28;20760;-55
2022/12/01 00:28:51;;;;;;;74.53;34.37;;;2.00;1.00;;;;;;6244497;28;20389;-54
2022/12/01 00:31:54;;;;;;;72.70;33.20;;;2.00;1.00;;;;;;6229688;28;20227;-54
2022/12/01 00:34:57;;;;;;;72.53;33.67;;;1.80;1.00;;;;;;6245716;28;20250;-55
2022/12/01 00:37:59;;;;;;;69.10;33.63;;;1.80;1.00;;;;;;6236390;28;20261;-53
2022/12/01 00:41:03;;;;;;;74.70;35.00;;;1.60;1.00;;;;;;6232267;28;20230;-54
2022/12/01 00:44:07;;;;;;;75.07;36.23;;;1.80;1.00;;;;;;6229508;28;20631;-54
2022/12/01 00:47:10;;;;;;;73.77;37.00;;;2.00;1.00;;;;;;6233633;28;20610;-53
2022/12/01 00:50:13;;;;;;;72.00;34.50;;;1.70;1.00;;;;;;6231819;28;20230;-52
2022/12/01 00:53:16;;;;;;;78.33;36.47;;;1.70;1.00;;;;;;6229402;28;20250;-55
2022/12/01 00:56:19;;;;;;;87.60;37.47;;;1.90;1.00;;;;;;6229227;28;20231;-54
2022/12/01 00:59:24;;;;;;;70.73;34.97;;;1.80;1.00;;;;;;6233264;28;20253;-53
2022/12/01 01:02:27;;;;;;;77.70;34.80;;;1.70;1.00;;;;;;6232240;28;20232;-53
2022/12/01 01:05:30;;;;;;;76.70;36.60;;;1.80;1.00;;;;;;6222384;28;20249;-53
2022/12/01 01:08:33;;;;;;;75.73;37.80;;;1.80;1.00;;;;;;6230384;28;20242;-54
2022/12/01 01:11:36;;;;;;;82.87;37.83;;;1.90;1.00;;;;;;6241585;28;20260;-53
2022/12/01 01:14:41;;;;;;;79.37;37.20;;;1.70;1.00;;;;;;6236035;28;20230;-53
2022/12/01 01:17:43;;;;;;;75.63;38.30;;;1.70;1.00;;;;;;6229745;28;20234;-54
2022/12/01 01:20:55;;;;;;;83.80;37.07;;;1.90;1.00;;;;;;6237599;28;20268;-53
2022/12/01 01:23:58;;;;;;;76.27;36.17;;;1.60;1.00;;;;;;6237643;28;20242;-56
2022/12/01 01:27:01;;;;;;;79.57;36.60;;;1.80;1.00;;;;;;6232532;28;20243;-54
2022/12/01 01:30:07;;;;;;;73.87;36.27;;;1.60;1.00;;;;;;6237088;28;20400;-53
2022/12/01 01:33:10;;;;;;;74.43;34.87;;;2.00;1.00;;;;;;6230039;28;20239;-54
2022/12/01 01:36:13;;;;;;;73.03;34.37;;;1.80;1.00;;;;;;6233329;28;20242;-52
2022/12/01 01:39:17;;;;;;;75.80;35.80;;;1.70;1.00;;;;;;6236511;28;20246;-54
2022/12/01 01:42:20;;;;;;;77.03;36.43;;;1.90;1.00;;;;;;6237259;28;20236;-52
2022/12/01 01:45:29;;;;;;;87.43;37.87;;;1.60;1.00;;;;;;6230277;28;20245;-54
2022/12/01 01:48:33;;;;;;;85.90;38.23;;;1.70;1.00;;;;;;6229287;28;20238;-54
2022/12/01 01:51:44;;;;;;;79.17;35.63;;;1.80;1.00;;;;;;6237086;28;20238;-53
2022/12/01 01:54:52;;;;;;;75.17;36.57;;;1.80;1.00;;;;;;6229067;28;20725;-53
2022/12/01 01:57:55;;;;;;;81.10;36.77;;;1.90;1.00;;;;;;6236815;28;20261;-55
2022/12/01 02:00:59;;;;;;;82.60;36.57;;;1.60;1.00;;;;;;6236388;28;20744;-54
2022/12/01 02:04:03;;;;;;;83.00;35.87;;;1.80;1.00;;;;;;6202443;28;20278;-53
2022/12/01 02:07:07;;;;;;;81.97;36.60;;;1.90;1.00;;;;;;6209383;28;20266;-52
2022/12/01 02:10:13;;;;;;;79.93;36.67;;;1.80;1.00;;;;;;6214394;28;20243;-54
2022/12/01 02:13:22;;;;;;;89.30;37.20;;;1.60;1.00;;;;;;6212464;28;20239;-54
2022/12/01 02:16:33;;;;;;;84.67;36.93;;;1.80;1.00;;;;;;6210289;28;20239;-55
2022/12/01 02:19:56;;;;;;;85.87;38.40;;;1.90;1.00;;;;;;6211248;28;20629;-54
2022/12/01 02:23:24;;;;;;;85.37;37.20;;;1.70;1.00;;;;;;6210373;28;20696;-54
2022/12/01 02:26:50;;;;;;;83.10;36.50;;;1.80;1.00;;;;;;6182838;28;20619;-54
2022/12/01 02:30:09;;;;;;;89.60;36.97;;;1.90;1.00;;;;;;6204211;28;20231;-53
2022/12/01 02:33:19;;;;;;;85.20;35.90;;;1.80;1.00;;;;;;6200739;28;20240;-54
2022/12/01 02:36:30;;;;;;;77.97;35.83;;;1.90;1.00;;;;;;6235761;28;20265;-56
2022/12/01 02:39:38;;;;;;;73.07;33.23;;;1.50;1.00;;;;;;6217404;28;20235;-54
2022/12/01 02:42:49;;;;;;;73.57;34.10;;;1.60;1.00;;;;;;6207681;28;20250;-53
2022/12/01 02:45:56;;;;;;;84.00;36.27;;;1.50;1.00;;;;;;6211896;28;20238;-54
2022/12/01 02:49:06;;;;;;;85.53;36.93;;;1.60;1.00;;;;;;6210459;28;20619;-54
2022/12/01 02:52:11;;;;;;;83.00;37.37;;;1.90;1.00;;;;;;6224874;28;20693;-53
2022/12/01 02:55:14;;;;;;;88.30;38.87;;;2.00;1.00;;;;;;6234126;28;20270;-54
2022/12/01 02:58:17;;;;;;;87.10;38.07;;;1.70;1.00;;;;;;6234248;28;20253;-54
2022/12/01 03:01:40;;;;;;;84.97;37.63;;;1.80;1.00;;;;;;6225509;28;20232;-54
2022/12/01 03:04:55;;;;;;;86.07;38.37;;;1.50;1.00;;;;;;6215300;28;20374;-52
2022/12/01 03:08:06;;;;;;;81.00;37.00;;;1.40;1.00;;;;;;6233678;28;20650;-54
2022/12/01 03:11:25;;;;;;;86.90;36.90;;;1.70;1.00;;;;;;6239110;28;20255;-54
2022/12/01 03:14:36;;;;;;;84.73;37.50;;;1.70;1.00;;;;;;6235521;28;20737;-54
2022/12/01 03:17:45;;;;;;;90.47;39.23;;;1.50;1.00;;;;;;6219979;28;20239;-54
2022/12/01 03:20:57;;;;;;;87.63;38.17;;;1.50;1.00;;;;;;6235462;28;20241;-54
2022/12/01 03:24:04;;;;;;;100.17;38.30;;;1.50;1.00;;;;;;6228846;28;20233;-53
2022/12/01 03:27:09;;;;;;;96.33;40.30;;;1.50;1.00;;;;;;6232967;28;20253;-52
2022/12/01 03:30:14;;;;;;;94.63;39.23;;;1.50;1.00;;;;;;6234711;28;20230;-54
2022/12/01 03:33:24;;;;;;;90.50;40.07;;;1.70;1.00;;;;;;6219830;28;20615;-54
2022/12/01 03:36:34;;;;;;;91.40;39.77;;;1.50;1.00;;;;;;6234728;28;20907;-54
2022/12/01 03:39:40;;;;;;;87.87;37.87;;;1.60;1.00;;;;;;6215225;28;20693;-54
2022/12/01 03:42:48;;;;;;;96.03;39.97;;;1.40;1.00;;;;;;6223740;28;20611;-54
2022/12/01 03:45:59;;;;;;;85.23;37.80;;;1.50;1.00;;;;;;6234566;28;20234;-54
2022/12/01 03:49:04;;;;;;;95.83;40.50;;;1.70;1.00;;;;;;6234674;28;20231;-54
2022/12/01 03:52:18;;;;;;;96.97;38.90;;;1.70;1.00;;;;;;6226349;28;20249;-53
2022/12/01 03:55:25;;;;;;;94.83;40.00;;;1.50;1.00;;;;;;6232192;28;20669;-52
2022/12/01 03:58:33;;;;;;;99.03;41.03;;;1.50;1.00;;;;;;6231278;28;20606;-54
2022/12/01 04:01:37;;;;;;;98.40;39.97;;;1.50;1.00;;;;;;6223172;28;20729;-54
2022/12/01 04:04:40;;;;;;;90.80;39.20;;;1.50;1.00;;;;;;6225607;28;20234;-53
2022/12/01 04:07:44;;;;;;;94.77;40.40;;;1.50;1.00;;;;;;6239767;28;20805;-54
2022/12/01 04:10:47;;;;;;;93.03;40.00;;;1.50;1.00;;;;;;6241723;28;20751;-53
2022/12/01 04:13:49;;;;;;;92.40;39.33;;;1.50;1.00;;;;;;6233108;28;20481;-56
2022/12/01 04:16:52;;;;;;;98.13;39.50;;;1.60;1.00;;;;;;6235342;28;20724;-55
2022/12/01 04:19:55;;;;;;;95.90;40.57;;;1.60;1.00;;;;;;6234906;28;20477;-55
2022/12/01 04:22:59;;;;;;;99.63;41.47;;;1.60;1.00;;;;;;6233312;28;20234;-55
2022/12/01 04:26:04;;;;;;;100.97;42.00;;;1.80;1.00;;;;;;6230732;28;20769;-54
2022/12/01 04:29:08;;;;;;;100.20;41.23;;;1.70;1.00;;;;;;6231416;28;20704;-54
2022/12/01 04:32:12;;;;;;;89.40;40.97;;;1.70;1.00;;;;;;6211152;28;20422;-54
2022/12/01 04:35:15;;;;;;;97.97;40.77;;;1.50;1.00;;;;;;6232987;28;20384;-54
2022/12/01 04:38:19;;;;;;;99.93;41.87;;;1.50;1.00;;;;;;6227755;28;20238;-53
2022/12/01 04:41:22;;;;;;;100.23;42.67;;;1.50;1.00;;;;;;6223799;28;20231;-54
2022/12/01 04:44:26;;;;;;;92.67;40.30;;;1.50;1.00;;;;;;6228143;28;20230;-53
2022/12/01 04:47:36;;;;;;;92.33;39.80;;;1.60;1.00;;;;;;6216315;28;20227;-53
2022/12/01 04:50:40;;;;;;;90.60;40.70;;;1.50;1.00;;;;;;6227855;28;20227;-54
2022/12/01 04:53:45;;;;;;;87.60;40.90;;;1.30;1.00;;;;;;6227936;28;20622;-54
2022/12/01 04:56:48;;;;;;;89.83;40.03;;;1.60;1.00;;;;;;6231848;28;20246;-55
2022/12/01 04:59:51;;;;;;;86.73;39.67;;;1.60;1.00;;;;;;6231267;28;20231;-54
2022/12/01 05:02:54;;;;;;;102.30;41.47;;;1.50;1.00;;;;;;6224569;28;20227;-53
2022/12/01 05:06:04;;;;;;;91.60;40.20;;;1.30;1.00;;;;;;6234873;28;20238;-54
2022/12/01 05:09:13;;;;;;;93.77;41.63;;;1.50;1.00;;;;;;6230569;28;20713;-53
2022/12/01 05:12:19;;;;;;;87.40;38.87;;;1.50;1.00;;;;;;6233365;28;20277;-53
2022/12/01 05:15:22;;;;;;;94.37;41.03;;;1.30;1.00;;;;;;6232765;28;20228;-53
2022/12/01 05:18:25;;;;;;;92.97;41.07;;;1.10;1.00;;;;;;6229958;28;20246;-54
2022/12/01 05:21:27;;;;;;;93.17;39.83;;;1.20;1.00;;;;;;6231694;28;20231;-54
2022/12/01 05:24:31;;;;;;;92.50;41.33;;;1.30;1.00;;;;;;6228400;28;20227;-54
2022/12/01 05:27:34;;;;;;;93.20;39.40;;;1.30;1.00;;;;;;6232002;28;20250;-54
2022/12/01 05:30:37;;;;;;;87.97;40.83;;;1.30;1.00;;;;;;6232143;28;20235;-54
2022/12/01 05:33:40;;;;;;;88.50;41.50;;;1.30;1.00;;;;;;6226391;28;20374;-55
2022/12/01 05:36:43;;;;;;;91.70;41.43;;;1.30;1.00;;;;;;6236211;28;20238;-54
2022/12/01 05:39:47;;;;;;;86.67;41.57;;;1.20;1.00;;;;;;6240487;28;20239;-53
2022/12/01 05:42:51;;;;;;;88.27;41.33;;;1.10;1.00;;;;;;6225802;28;20485;-53
2022/12/01 05:45:55;;;;;;;92.80;41.93;;;1.50;1.00;;;;;;6235611;28;20226;-54
2022/12/01 05:48:58;;;;;;;93.60;43.47;;;1.20;1.00;;;;;;6234670;28;20244;-53
2022/12/01 05:52:01;;;;;;;92.57;42.77;;;1.50;1.00;;;;;;6236151;28;20234;-53
2022/12/01 05:55:06;;;;;;;84.40;40.53;;;1.20;1.00;;;;;;6223344;28;20768;-53
2022/12/01 05:58:10;;;;;;;91.30;42.30;;;1.20;1.00;;;;;;6240242;28;20317;-54
2022/12/01 06:01:12;;;;;;;93.43;42.43;;;1.20;1.00;;;;;;6237731;28;20242;-53
2022/12/01 06:04:15;;;;;;;83.47;40.93;;;1.40;1.00;;;;;;6228540;28;20232;-54
2022/12/01 06:07:19;;;;;;;92.73;41.37;;;1.50;1.00;;;;;;6230187;28;20734;-55
2022/12/01 06:10:23;;;;;;;91.40;41.93;;;1.30;1.00;;;;;;6235993;28;20719;-55
2022/12/01 06:13:26;;;;;;;89.13;44.10;;;1.30;1.00;;;;;;6229476;28;20727;-52
2022/12/01 06:16:29;;;;;;;89.47;43.00;;;1.20;1.00;;;;;;6234350;28;20234;-54
2022/12/01 06:19:32;;;;;;;86.17;42.17;;;1.40;1.00;;;;;;6239996;28;20248;-53
2022/12/01 06:22:35;;;;;;;95.47;43.03;;;1.20;1.00;;;;;;6228818;28;20228;-53
2022/12/01 06:25:39;;;;;;;92.50;43.13;;;1.30;1.00;;;;;;6233607;28;20233;-52
2022/12/01 06:28:42;;;;;;;91.63;42.17;;;1.40;1.00;;;;;;6233645;28;20234;-53
2022/12/01 06:31:45;;;;;;;87.40;41.97;;;1.20;1.00;;;;;;6236094;28;20615;-54
2022/12/01 06:34:48;;;;;;;92.67;43.20;;;1.30;1.00;;;;;;6236485;28;20701;-53
2022/12/01 06:37:53;;;;;;;85.73;41.00;;;1.40;1.00;;;;;;6231430;28;21116;-53
2022/12/01 06:40:57;;;;;;;80.97;40.23;;;1.20;1.00;;;;;;6231325;28;20800;-53
2022/12/01 06:44:01;;;;;;;85.70;41.17;;;1.30;1.00;;;;;;6223119;28;20235;-53
2022/12/01 06:47:04;;;;;;;88.47;41.97;;;1.30;1.00;;;;;;6227725;28;20250;-53
2022/12/01 06:50:09;;;;;;;84.60;43.07;;;1.30;1.00;;;;;;6239514;28;20234;-53
2022/12/01 06:53:12;;;;;;;87.40;43.50;;;1.40;1.00;;;;;;6234564;28;20243;-53
2022/12/01 06:56:16;;;;;;;91.57;42.90;;;1.20;1.00;;;;;;6233524;28;20736;-54
2022/12/01 06:59:19;;;;;;;93.70;43.23;;;1.30;1.00;;;;;;6241248;28;20250;-54
2022/12/01 07:02:23;;;;;;;94.40;45.07;;;1.30;1.00;;;;;;6233097;28;20238;-53
2022/12/01 07:05:26;;;;;;;89.00;41.97;;;1.40;1.00;;;;;;6225416;28;20249;-53
2022/12/01 07:08:30;;;;;;;86.47;41.93;;;1.30;1.00;;;;;;6231112;28;20715;-53
2022/12/01 07:11:35;;;;;;;95.87;47.53;;;1.40;1.00;;;;;;6239722;28;20231;-54
2022/12/01 07:14:41;;;;;;;98.27;45.23;;;1.20;1.00;;;;;;6244114;28;20245;-54
2022/12/01 07:17:44;;;;;;;104.77;46.70;;;1.30;1.00;;;;;;6229123;28;20241;-53
2022/12/01 07:20:47;;;;;;;103.13;47.60;;;1.30;1.00;;;;;;6236997;28;20242;-55
2022/12/01 07:23:50;;;;;;;104.43;48.70;;;1.50;1.00;;;;;;6234704;28;20237;-55
2022/12/01 07:26:54;;;;;;;106.43;50.10;;;1.40;1.00;;;;;;6231547;28;20237;-54
2022/12/01 07:29:57;;;;;;;107.07;48.50;;;1.30;1.00;;;;;;6237838;28;20591;-55
2022/12/01 07:33:00;;;;;;;109.77;48.00;;;1.50;1.00;;;;;;6222902;28;20223;-54
2022/12/01 07:36:04;;;;;;;100.97;47.83;;;1.50;1.00;;;;;;6235313;28;20239;-53
2022/12/01 07:39:08;;;;;;;111.07;51.30;;;1.60;1.00;;;;;;6236563;28;20255;-55
2022/12/01 07:42:12;;;;;;;105.03;48.60;;;1.50;1.00;;;;;;6237820;28;20252;-54
2022/12/01 07:45:15;;;;;;;120.93;52.40;;;1.70;1.00;;;;;;6234889;28;20233;-54
2022/12/01 07:48:18;;;;;;;117.87;52.87;;;1.50;1.00;;;;;;6233162;28;20249;-54
2022/12/01 07:51:23;;;;;;;102.13;47.80;;;1.40;1.00;;;;;;6236557;28;20602;-53
2022/12/01 07:54:25;;;;;;;120.53;50.60;;;1.60;1.00;;;;;;6237395;28;20241;-54
2022/12/01 07:57:30;;;;;;;124.83;52.10;;;1.90;1.00;;;;;;6235210;28;20344;-54
2022/12/01 08:00:33;;;;;;;129.33;53.50;;;1.60;1.00;;;;;;6235216;28;20607;-55
2022/12/01 08:03:36;;;;;;;117.17;52.13;;;1.80;1.00;;;;;;6229130;28;20241;-56
2022/12/01 08:06:39;;;;;;;129.70;54.80;;;1.70;1.00;;;;;;6234780;28;20237;-54
2022/12/01 08:09:43;;;;;;;136.07;55.40;;;1.50;1.00;;;;;;6232606;28;20611;-54
2022/12/01 08:12:48;;;;;;;130.43;54.77;;;1.60;1.00;;;;;;6232812;28;20235;-54
2022/12/01 08:15:51;;;;;;;134.03;58.17;;;1.70;1.00;;;;;;6235036;28;20226;-53
2022/12/01 08:18:54;;;;;;;130.07;55.90;;;1.60;1.00;;;;;;6221151;28;20235;-53
2022/12/01 08:21:57;;;;;;;126.60;53.23;;;1.60;1.00;;;;;;6212082;28;20243;-52
2022/12/01 08:25:01;;;;;;;130.03;55.30;;;1.80;1.00;;;;;;6221311;28;20254;-53
2022/12/01 08:28:05;;;;;;;118.27;52.77;;;1.70;1.00;;;;;;6222719;28;20238;-55
2022/12/01 08:31:10;;;;;;;110.43;48.00;;;1.70;1.00;;;;;;6215001;28;20274;-53
2022/12/01 08:34:13;;;;;;;110.70;46.93;;;1.80;1.00;;;;;;6223527;28;20336;-53
2022/12/01 08:37:16;;;;;;;114.77;49.77;;;1.70;1.00;;;;;;6216382;28;20730;-54
2022/12/01 08:40:20;;;;;;;116.90;50.07;;;1.90;1.00;;;;;;6224530;28;20242;-54
2022/12/01 08:43:24;;;;;;;112.23;51.00;;;1.80;1.00;;;;;;6224720;28;20235;-54
2022/12/01 08:46:47;;;;;;;125.17;53.33;;;2.10;1.00;;;;;;6235258;28;20473;-53
2022/12/01 08:49:50;;;;;;;121.43;52.03;;;1.90;1.00;;;;;;6238671;28;20246;-54
2022/12/01 08:52:53;;;;;;;126.33;51.63;;;1.80;1.00;;;;;;6236927;28;20234;-54
2022/12/01 08:55:59;;;;;;;114.07;51.60;;;1.90;1.00;;;;;;6241670;28;20242;-54
2022/12/01 08:59:04;;;;;;;121.50;52.90;;;1.90;1.00;;;;;;6245146;28;20701;-54
2022/12/01 09:02:12;;;;;;;127.97;54.70;;;1.90;1.00;;;;;;6239552;28;20238;-53
2022/12/01 09:05:15;;;;;;;119.83;52.23;;;1.80;1.00;;;;;;6238510;28;20231;-54
2022/12/01 09:08:34;;;;;;;121.63;53.57;;;1.80;1.00;;;;;;6232131;28;20234;-54
2022/12/01 09:11:37;;;;;;;125.47;55.07;;;1.60;1.00;;;;;;6236998;28;20237;-53
2022/12/01 09:14:46;;;;;;;122.63;53.73;;;1.80;1.00;;;;;;6244514;28;20226;-54
2022/12/01 09:17:49;;;;;;;124.07;52.33;;;1.80;1.00;;;;;;6241811;28;20249;-54
2022/12/01 09:20:53;;;;;;;126.83;54.80;;;1.80;1.00;;;;;;6227557;28;20242;-54
2022/12/01 09:23:56;;;;;;;124.60;54.40;;;1.90;1.00;;;;;;6240388;28;20245;-52
2022/12/01 09:27:02;;;;;;;121.37;54.70;;;1.70;1.00;;;;;;6241290;28;20737;-54
2022/12/01 09:30:07;;;;;;;127.63;55.73;;;1.70;1.00;;;;;;6237883;28;20724;-55
2022/12/01 09:33:10;;;;;;;123.27;55.10;;;1.80;1.00;;;;;;6236299;28;20245;-54
2022/12/01 09:36:13;;;;;;;125.13;54.97;;;2.00;1.00;;;;;;6241002;28;20265;-55
2022/12/01 09:39:19;;;;;;;129.00;55.83;;;1.80;1.00;;;;;;6235654;28;20239;-53
2022/12/01 09:42:26;;;;;;;125.17;55.43;;;1.90;1.00;;;;;;6250677;28;20234;-54
2022/12/01 09:45:43;;;;;;;117.07;52.30;;;1.60;1.00;;;;;;6242809;28;20720;-54
2022/12/01 09:48:47;;;;;;;105.33;50.23;;;1.90;1.00;;;;;;6222745;28;20236;-54
2022/12/01 09:51:52;;;;;;;98.33;46.93;;;1.90;1.00;;;;;;6224340;28;20239;-53
2022/12/01 09:54:57;;;;;;;100.27;48.03;;;1.80;1.00;;;;;;6211629;28;20231;-54
2022/12/01 09:58:03;;;;;;;100.07;47.03;;;1.80;1.00;;;;;;6225325;28;20239;-55
2022/12/01 10:01:15;;;;;;;96.07;45.70;;;2.10;1.00;;;;;;6235589;28;20235;-55
2022/12/01 10:04:24;;;;;;;104.77;45.77;;;2.10;1.00;;;;;;6243109;28;20522;-54
2022/12/01 10:07:31;;;;;;;96.87;46.17;;;2.10;1.00;;;;;;6241985;28;20628;-57
2022/12/01 10:10:38;;;;;;;95.00;45.43;;;2.00;1.00;;;;;;6250042;28;20599;-54
2022/12/01 10:13:41;;;;;;;98.57;45.60;;;1.80;1.00;;;;;;6248908;28;20238;-54
2022/12/01 10:16:55;;;;;;;97.23;46.37;;;2.00;1.00;;;;;;6241592;28;20243;-54
2022/12/01 10:20:04;;;;;;;85.23;43.70;;;1.90;1.00;;;;;;6237918;28;20238;-55
2022/12/01 10:23:27;;;;;;;88.63;45.97;;;2.00;1.00;;;;;;6238446;28;20393;-53
2022/12/01 10:26:34;;;;;;;96.77;43.93;;;1.90;1.00;;;;;;6241196;28;20377;-54
2022/12/01 10:29:44;;;;;;;83.30;42.03;;;2.10;1.00;;;;;;6233151;28;20264;-55
2022/12/01 10:32:53;;;;;;;90.37;44.47;;;2.20;1.00;;;;;;6228866;28;20248;-54
2022/12/01 10:35:57;;;;;;;87.63;43.20;;;2.20;1.00;;;;;;6235388;28;20246;-53
2022/12/01 10:39:01;;;;;;;93.20;45.23;;;2.10;1.00;;;;;;6239711;28;20230;-54
2022/12/01 10:42:07;;;;;;;88.03;45.37;;;2.30;1.00;;;;;;6239603;28;20239;-52
2022/12/01 10:45:16;;;;;;;83.57;44.53;;;2.10;1.00;;;;;;6241546;28;20253;-55
2022/12/01 10:48:22;;;;;;;86.57;44.10;;;2.50;1.00;;;;;;6241768;28;20243;-54
2022/12/01 10:51:26;;;;;;;86.80;42.50;;;2.20;1.00;;;;;;6237842;28;20231;-56
2022/12/01 10:54:35;;;;;;;92.67;44.90;;;2.20;1.00;;;;;;6237734;28;20239;-54
2022/12/01 10:57:38;;;;;;;85.00;43.03;;;2.30;1.00;;;;;;6235615;28;20239;-54
2022/12/01 11:00:43;;;;;;;75.53;41.97;;;2.20;1.00;;;;;;6239342;28;20234;-54
2022/12/01 11:04:27;;;;;;;80.87;43.20;;;2.20;1.00;;;;;;6235589;28;20231;-54
2022/12/01 11:07:34;;;;;;;86.73;44.90;;;2.10;1.00;;;;;;6235917;28;20329;-54
2022/12/01 11:10:38;;;;;;;79.83;42.93;;;2.20;1.00;;;;;;6233655;28;20236;-55
2022/12/01 11:13:42;;;;;;;86.90;44.17;;;2.50;1.00;;;;;;6238918;28;20231;-55
2022/12/01 11:16:47;;;;;;;86.10;44.83;;;2.30;1.00;;;;;;6235010;28;20234;-56
2022/12/01 11:19:51;;;;;;;82.90;42.67;;;2.60;1.00;;;;;;6236784;28;21646;-55
2022/12/01 11:23:27;;;;;;;81.93;43.40;;;2.50;1.00;;;;;;6240539;28;20248;-54
2022/12/01 11:26:31;;;;;;;78.97;44.57;;;2.30;1.00;;;;;;6235248;28;20737;-56
2022/12/01 11:29:36;;;;;;;78.23;42.27;;;2.30;1.00;;;;;;6236112;28;20341;-54
2022/12/01 11:32:40;;;;;;;82.63;43.97;;;2.50;1.00;;;;;;6225864;28;20910;-54
2022/12/01 11:35:48;;;;;;;79.77;42.03;;;2.50;1.00;;;;;;6233212;28;20234;-55
2022/12/01 11:38:57;;;;;;;83.17;44.63;;;2.20;1.00;;;;;;6239185;28;20242;-54
2022/12/01 11:42:03;;;;;;;83.30;44.37;;;2.60;1.00;;;;;;6238149;28;20242;-55
2022/12/01 11:45:18;;;;;;;83.90;44.03;;;2.40;1.00;;;;;;6232169;28;20724;-54
2022/12/01 11:48:25;;;;;;;74.40;40.83;;;2.60;1.00;;;;;;6236447;28;20239;-53
2022/12/01 11:51:36;;;;;;;84.17;44.33;;;2.40;1.00;;;;;;6249430;28;20229;-53
2022/12/01 11:54:55;;;;;;;73.80;42.20;;;2.50;1.00;;;;;;6234947;28;20231;-54
2022/12/01 11:58:01;;;;;;;75.83;41.90;;;2.40;1.00;;;;;;6247521;28;20561;-56
2022/12/01 12:01:11;;;;;;;79.20;43.53;;;2.50;1.00;;;;;;6234177;28;20234;-54
2022/12/01 12:04:33;;;;;;;76.20;42.60;;;2.60;1.00;;;;;;6234930;28;20329;-54
2022/12/01 12:07:46;;;;;;;77.87;41.70;;;2.60;1.00;;;;;;6231798;28;20234;-55
2022/12/01 12:10:55;;;;;;;71.57;40.07;;;2.60;1.00;;;;;;6239708;28;20238;-54
2022/12/01 12:14:12;;;;;;;70.60;40.20;;;2.50;1.00;;;;;;6234089;28;20238;-53
2022/12/01 12:17:38;;;;;;;68.80;39.33;;;2.40;1.00;;;;;;6220684;28;20362;-54
2022/12/01 12:20:55;;;;;;;66.50;37.60;;;2.50;1.00;;;;;;6207393;28;20242;-54
2022/12/01 12:24:29;;;;;;;70.83;38.80;;;2.40;1.00;;;;;;6216721;28;20694;-54
2022/12/01 12:27:42;;;;;;;61.67;37.60;;;2.40;1.00;;;;;;6227197;28;20239;-56
2022/12/01 12:30:52;;;;;;;69.00;39.20;;;2.40;1.00;;;;;;6232907;28;20737;-54
2022/12/01 12:34:24;;;;;;;62.80;37.40;;;2.60;1.00;;;;;;6232992;28;20469;-53
2022/12/01 12:37:39;;;;;;;63.07;37.23;;;2.30;1.00;;;;;;6218438;28;20782;-55
2022/12/01 12:40:52;;;;;;;64.67;37.13;;;2.30;1.00;;;;;;6224052;28;20231;-54
2022/12/01 12:44:06;;;;;;;63.07;36.27;;;2.60;1.00;;;;;;6209358;28;20251;-55
2022/12/01 12:47:19;;;;;;;69.90;38.13;;;2.30;1.00;;;;;;6233176;28;20581;-55
2022/12/01 12:50:28;;;;;;;62.10;35.90;;;2.50;1.00;;;;;;6227937;28;20250;-55
2022/12/01 12:53:37;;;;;;;60.93;35.80;;;2.40;1.00;;;;;;6232785;28;20709;-53
2022/12/01 12:56:52;;;;;;;67.23;39.30;;;2.60;1.00;;;;;;6226916;28;20247;-56
2022/12/01 13:00:00;;;;;;;63.97;38.13;;;2.60;1.00;;;;;;6232882;28;20235;-54
2022/12/01 13:03:13;;;;;;;66.67;38.93;;;2.30;1.00;;;;;;6233975;28;20257;-54
2022/12/01 13:06:26;;;;;;;62.30;37.30;;;2.40;1.00;;;;;;6232307;28;20741;-54
2022/12/01 13:09:36;;;;;;;65.97;38.17;;;2.60;1.00;;;;;;6242306;28;20246;-53
2022/12/01 13:12:48;;;;;;;60.20;35.90;;;2.30;1.00;;;;;;6243005;28;20322;-54
2022/12/01 13:15:54;;;;;;;60.07;35.00;;;2.30;1.00;;;;;;6231083;28;20234;-52
2022/12/01 13:19:03;;;;;;;64.87;37.67;;;2.20;1.00;;;;;;6240371;28;20329;-53
2022/12/01 13:22:09;;;;;;;65.17;37.47;;;2.50;1.00;;;;;;6237369;28;20324;-54
2022/12/01 13:25:14;;;;;;;60.83;36.87;;;2.20;1.00;;;;;;6237385;28;20231;-53
2022/12/01 13:28:21;;;;;;;65.47;38.50;;;2.40;1.00;;;;;;6241955;28;20242;-55
2022/12/01 13:31:25;;;;;;;61.20;34.43;;;2.30;1.00;;;;;;6242709;28;20239;-54
2022/12/01 13:34:34;;;;;;;62.30;35.63;;;2.40;1.00;;;;;;6236102;28;20755;-55
2022/12/01 13:37:38;;;;;;;58.90;36.30;;;2.30;1.00;;;;;;6237851;28;20230;-52
2022/12/01 13:40:41;;;;;;;62.67;37.50;;;2.10;1.00;;;;;;6241231;28;20229;-53
2022/12/01 13:43:58;;;;;;;61.13;35.87;;;2.40;1.00;;;;;;6235235;28;20250;-55
2022/12/01 13:47:05;;;;;;;62.10;35.63;;;2.20;1.00;;;;;;6239300;28;20717;-53
2022/12/01 13:50:53;;;;;;;59.43;35.83;;;2.20;1.00;;;;;;6235469;28;20231;-53
2022/12/01 13:54:27;;;;;;;61.37;37.37;;;2.30;1.00;;;;;;6195626;28;20756;-53
2022/12/01 13:57:32;;;;;;;56.63;34.30;;;2.50;1.00;;;;;;6221198;28;20247;-53
2022/12/01 14:00:37;;;;;;;57.50;34.97;;;2.20;1.00;;;;;;6211725;28;20418;-54
2022/12/01 14:03:40;;;;;;;64.03;34.80;;;2.40;1.00;;;;;;6211862;28;20243;-55
2022/12/01 14:06:48;;;;;;;61.33;35.83;;;2.40;1.00;;;;;;6218762;28;20977;-54
2022/12/01 14:09:53;;;;;;;61.40;34.90;;;2.30;1.00;;;;;;6220899;28;20658;-55
2022/12/01 14:13:01;;;;;;;59.20;35.17;;;2.20;1.00;;;;;;6222077;28;20771;-59
2022/12/01 14:16:06;;;;;;;60.43;35.30;;;2.30;1.00;;;;;;6224019;28;20716;-55
2022/12/01 14:19:27;;;;;;;66.50;37.37;;;2.40;1.00;;;;;;6217022;28;20634;-53
2022/12/01 14:22:37;;;;;;;55.03;34.77;;;2.30;1.00;;;;;;6223606;28;20269;-54
2022/12/01 14:25:41;;;;;;;57.73;35.50;;;2.30;1.00;;;;;;6219098;28;20840;-54
2022/12/01 14:29:10;;;;;;;59.87;34.30;;;2.10;1.00;;;;;;6237188;28;20250;-52
2022/12/01 14:32:23;;;;;;;55.90;32.73;;;2.50;1.00;;;;;;6219392;28;20238;-54
2022/12/01 14:35:26;;;;;;;63.60;34.43;;;2.30;1.00;;;;;;6238803;28;20238;-54
2022/12/01 14:38:29;;;;;;;63.03;36.03;;;2.40;1.00;;;;;;6236268;28;20239;-55
2022/12/01 14:41:41;;;;;;;60.40;35.70;;;2.20;1.00;;;;;;6243763;28;20230;-56
2022/12/01 14:44:48;;;;;;;56.67;35.60;;;2.60;1.00;;;;;;6226088;28;20239;-54
2022/12/01 14:48:00;;;;;;;60.10;34.80;;;2.20;1.00;;;;;;6242572;28;20325;-54
2022/12/01 14:51:19;;;;;;;63.93;36.23;;;2.30;1.00;;;;;;6242315;28;20223;-61
2022/12/01 14:54:28;;;;;;;63.13;34.60;;;2.30;1.00;;;;;;6235095;28;20242;-54
2022/12/01 14:57:34;;;;;;;59.00;33.93;;;2.10;1.00;;;;;;6230019;28;20238;-53
2022/12/01 15:00:47;;;;;;;52.53;33.43;;;2.30;1.00;;;;;;6232618;28;20238;-54
2022/12/01 15:03:54;;;;;;;53.77;34.13;;;2.20;1.00;;;;;;6231857;28;20266;-54
2022/12/01 15:06:57;;;;;;;66.90;36.63;;;2.30;1.00;;;;;;6242461;28;20243;-54
2022/12/01 15:10:03;;;;;;;54.23;35.03;;;2.20;1.00;;;;;;6236058;28;20235;-54
2022/12/01 15:13:14;;;;;;;55.23;34.70;;;2.40;1.00;;;;;;6242338;28;20254;-54
2022/12/01 15:16:19;;;;;;;54.10;33.17;;;2.10;1.00;;;;;;6238006;28;20226;-54
2022/12/01 15:19:29;;;;;;;57.10;34.77;;;2.30;1.00;;;;;;6229492;28;20231;-54
2022/12/01 15:22:34;;;;;;;59.23;35.33;;;2.20;1.00;;;;;;6235568;28;20235;-54
2022/12/01 15:25:37;;;;;;;59.53;35.40;;;2.30;1.00;;;;;;6242771;28;20418;-54
2022/12/01 15:28:40;;;;;;;57.07;33.23;;;2.20;1.00;;;;;;6227330;28;20327;-54
2022/12/01 15:31:44;;;;;;;61.93;34.73;;;2.30;1.00;;;;;;6242726;28;20233;-53
2022/12/01 15:34:52;;;;;;;59.33;33.77;;;2.20;1.00;;;;;;6235273;28;20230;-54
2022/12/01 15:37:56;;;;;;;57.07;33.70;;;2.30;1.00;;;;;;6236505;28;20429;-54
2022/12/01 15:41:01;;;;;;;60.90;35.03;;;2.20;1.00;;;;;;6241231;28;20226;-53
2022/12/01 15:44:29;;;;;;;52.20;32.00;;;2.40;1.00;;;;;;6236964;28;20529;-55
2022/12/01 15:47:35;;;;;;;58.30;33.53;;;2.50;1.00;;;;;;6238843;28;20400;-54
2022/12/01 15:50:42;;;;;;;64.67;35.20;;;2.10;1.00;;;;;;6235080;28;20237;-53
2022/12/01 15:53:52;;;;;;;55.17;33.00;;;2.50;1.00;;;;;;6239157;28;20318;-55
2022/12/01 15:56:57;;;;;;;53.80;33.33;;;2.30;1.00;;;;;;6235048;28;20238;-56
2022/12/01 16:00:00;;;;;;;57.93;34.63;;;2.30;1.00;;;;;;6233782;28;20223;-54
2022/12/01 16:03:03;;;;;;;62.13;35.03;;;2.10;1.00;;;;;;6238562;28;20238;-54
2022/12/01 16:06:12;;;;;;;64.97;37.10;;;2.20;1.00;;;;;;6238032;28;20307;-54
2022/12/01 16:09:23;;;;;;;62.07;35.00;;;2.20;1.00;;;;;;6240230;28;20596;-54
2022/12/01 16:12:28;;;;;;;61.93;35.17;;;2.10;1.00;;;;;;6240283;28;20814;-53